Time;durP1;ratioP1;P1;durP2;ratioP2;P2;SDS_P1;SDS_P2;PMS_P1;PMS_P2;Temp;Humidity;BMP_temperature;BMP_pressure;BME280_temperature;BME280_humidity;BME280_pressure;Samples;Min_cycle;Max_cycle;Signal;HPM_P1;HPM_P2
2023/03/06 00:02:16;;;;;;;16.90;11.40;;;;;;;4.19;54.25;95418.72;5026938;28;20680;-69
2023/03/06 00:04:41;;;;;;;22.40;12.37;;;;;;;4.34;54.51;95432.91;5026865;28;20209;-69
2023/03/06 00:07:07;;;;;;;20.67;12.50;;;;;;;4.42;53.80;95428.31;5026575;28;20270;-69
2023/03/06 00:09:32;;;;;;;20.43;11.90;;;;;;;4.46;53.74;95421.25;5026881;28;20564;-70
2023/03/06 00:11:57;;;;;;;22.60;11.77;;;;;;;4.45;54.04;95423.00;5026748;28;20196;-69
2023/03/06 00:14:23;;;;;;;17.50;11.20;;;;;;;4.52;53.90;95418.44;5025468;28;20637;-69
2023/03/06 00:16:48;;;;;;;20.27;11.93;;;;;;;4.46;54.01;95413.44;5026422;28;21029;-69
2023/03/06 00:19:14;;;;;;;17.47;11.23;;;;;;;4.56;53.82;95411.34;5026648;28;20179;-69
2023/03/06 00:21:40;;;;;;;17.97;11.20;;;;;;;4.60;53.58;95412.94;5026571;28;20175;-69
2023/03/06 00:24:06;;;;;;;19.30;11.43;;;;;;;4.48;54.05;95409.03;5026791;28;20203;-69
2023/03/06 00:26:32;;;;;;;20.60;12.30;;;;;;;4.47;54.21;95403.94;5026384;28;20484;-69
2023/03/06 00:28:58;;;;;;;21.60;12.53;;;;;;;4.45;54.94;95399.63;5026758;28;20185;-69
2023/03/06 00:31:23;;;;;;;17.70;12.00;;;;;;;4.37;55.65;95400.78;5026527;28;20493;-69
2023/03/06 00:33:49;;;;;;;21.67;12.73;;;;;;;4.36;55.50;95394.75;5026543;28;20249;-70
2023/03/06 00:36:14;;;;;;;27.60;13.47;;;;;;;4.38;55.82;95389.50;5024766;28;20175;-69
2023/03/06 00:38:39;;;;;;;24.17;12.80;;;;;;;4.31;56.31;95388.03;5026613;28;20863;-69
2023/03/06 00:41:07;;;;;;;19.40;11.93;;;;;;;4.27;56.13;95378.66;5030272;28;20180;-70
2023/03/06 00:43:32;;;;;;;19.33;13.30;;;;;;;4.33;56.24;95381.88;5030282;28;20262;-69
2023/03/06 00:45:57;;;;;;;25.90;13.53;;;;;;;4.39;55.42;95373.88;5030251;28;20432;-69
2023/03/06 00:48:23;;;;;;;18.67;12.20;;;;;;;4.30;55.67;95370.72;5030333;28;20220;-70
2023/03/06 00:50:48;;;;;;;18.93;12.23;;;;;;;4.31;55.67;95362.06;5030320;28;20265;-69
2023/03/06 00:53:13;;;;;;;23.00;12.90;;;;;;;4.26;55.76;95357.03;5030643;28;20569;-70
2023/03/06 00:55:42;;;;;;;25.50;12.87;;;;;;;4.27;56.18;95357.88;5030132;28;20206;-69
2023/03/06 00:58:07;;;;;;;21.90;13.30;;;;;;;4.30;56.16;95353.44;5030187;28;20171;-70
2023/03/06 01:00:33;;;;;;;23.40;13.10;;;;;;;4.34;55.94;95349.78;5030033;28;20416;-69
2023/03/06 01:02:58;;;;;;;20.60;11.50;;;;;;;4.26;56.08;95348.41;5030179;28;20190;-69
2023/03/06 01:05:24;;;;;;;20.00;11.67;;;;;;;4.23;56.27;95346.75;5029894;28;20301;-70
2023/03/06 01:07:49;;;;;;;25.13;12.57;;;;;;;4.29;56.10;95341.31;5029891;28;20180;-70
2023/03/06 01:10:14;;;;;;;21.47;11.90;;;;;;;4.32;56.11;95337.78;5029996;28;20298;-69
2023/03/06 01:12:40;;;;;;;19.57;13.17;;;;;;;4.37;56.09;95339.31;5029819;28;20199;-70
2023/03/06 01:15:06;;;;;;;23.30;13.10;;;;;;;4.36;55.67;95332.41;5029988;28;20199;-70
2023/03/06 01:17:31;;;;;;;19.37;13.77;;;;;;;4.39;55.80;95327.13;5029584;28;20265;-69
2023/03/06 01:19:57;;;;;;;22.10;13.13;;;;;;;4.31;56.10;95333.50;5029702;28;20541;-69
2023/03/06 01:22:22;;;;;;;18.67;13.23;;;;;;;4.35;56.42;95329.88;5029760;28;20207;-70
2023/03/06 01:24:48;;;;;;;15.93;11.57;;;;;;;4.30;56.49;95322.25;5029545;28;20517;-69
2023/03/06 01:27:13;;;;;;;18.50;12.50;;;;;;;4.32;56.40;95324.78;5029353;28;20270;-69
2023/03/06 01:29:38;;;;;;;25.37;14.00;;;;;;;4.26;56.80;95320.69;5029729;28;20797;-70
2023/03/06 01:32:04;;;;;;;24.57;13.47;;;;;;;4.30;56.11;95314.47;5029455;28;20196;-70
2023/03/06 01:34:29;;;;;;;22.40;12.30;;;;;;;4.35;56.13;95320.34;5029570;28;20172;-69
2023/03/06 01:36:55;;;;;;;21.87;14.00;;;;;;;4.31;56.31;95312.72;5029415;28;20260;-70
2023/03/06 01:39:20;;;;;;;23.43;14.30;;;;;;;4.38;56.34;95307.22;5029592;28;20175;-69
2023/03/06 01:41:46;;;;;;;16.80;12.20;;;;;;;4.28;56.63;95298.09;5029486;28;20519;-69
2023/03/06 01:44:12;;;;;;;27.83;15.63;;;;;;;4.30;57.17;95304.09;5029357;28;20747;-70
2023/03/06 01:46:42;;;;;;;22.97;14.00;;;;;;;4.33;56.91;95300.53;5028989;28;20270;-69
2023/03/06 01:49:15;;;;;;;20.07;14.10;;;;;;;4.29;57.11;95307.56;5029431;28;20453;-69
2023/03/06 01:52:21;;;;;;;29.03;14.53;;;;;;;4.27;57.64;95295.53;5030087;28;20774;-70
2023/03/06 01:54:54;;;;;;;25.73;15.40;;;;;;;4.33;57.44;95290.13;5029313;28;20413;-69
2023/03/06 01:57:22;;;;;;;22.63;15.80;;;;;;;4.28;57.76;95281.69;5029010;28;20799;-70
2023/03/06 01:59:52;;;;;;;29.80;17.43;;;;;;;4.28;57.91;95284.28;5029226;28;20441;-68
2023/03/06 02:02:18;;;;;;;23.43;15.67;;;;;;;4.29;58.03;95284.19;5029075;28;20430;-69
2023/03/06 02:04:45;;;;;;;23.97;15.63;;;;;;;4.29;57.86;95283.34;5028899;28;21122;-69
2023/03/06 02:07:13;;;;;;;28.10;16.57;;;;;;;4.29;57.98;95284.19;5028681;28;20418;-69
2023/03/06 02:09:38;;;;;;;24.93;16.53;;;;;;;4.38;57.85;95273.47;5028099;28;20743;-68
2023/03/06 02:12:12;;;;;;;27.37;16.43;;;;;;;4.34;57.65;95269.28;5028842;28;20427;-69
2023/03/06 02:14:39;;;;;;;24.73;15.03;;;;;;;4.32;57.69;95265.88;5028880;28;20357;-69
2023/03/06 02:17:06;;;;;;;27.40;17.43;;;;;;;4.32;57.75;95259.84;5027244;28;20422;-69
2023/03/06 02:19:43;;;;;;;23.37;15.37;;;;;;;4.40;57.10;95265.63;5028528;28;20418;-69
2023/03/06 02:22:09;;;;;;;26.57;15.40;;;;;;;4.33;57.19;95259.81;5028640;28;20429;-69
2023/03/06 02:24:57;;;;;;;24.80;15.43;;;;;;;4.34;57.15;95255.47;5027332;28;20458;-69
2023/03/06 02:27:24;;;;;;;24.03;16.80;;;;;;;4.31;57.13;95256.41;5028333;28;20221;-70
2023/03/06 02:29:50;;;;;;;25.63;15.73;;;;;;;4.36;57.19;95254.50;5028496;28;20540;-69
2023/03/06 02:32:15;;;;;;;27.63;17.30;;;;;;;4.36;56.95;95262.28;5028464;28;20430;-69
2023/03/06 02:34:49;;;;;;;28.70;17.27;;;;;;;4.38;57.03;95249.25;5028159;28;20258;-69
2023/03/06 02:37:14;;;;;;;28.97;16.23;;;;;;;4.34;56.90;95253.69;5028076;28;20193;-70
2023/03/06 02:39:45;;;;;;;32.63;16.03;;;;;;;4.33;57.23;95246.81;5028318;28;20504;-69
2023/03/06 02:42:17;;;;;;;23.77;15.57;;;;;;;4.34;57.54;95245.06;5026648;28;20887;-69
2023/03/06 02:44:42;;;;;;;25.07;16.10;;;;;;;4.26;57.39;95240.16;5028213;28;20815;-69
2023/03/06 02:47:07;;;;;;;28.70;18.93;;;;;;;4.28;57.53;95238.38;5027780;28;20442;-69
2023/03/06 02:49:33;;;;;;;25.70;17.30;;;;;;;4.30;57.68;95225.31;5027997;28;20172;-69
2023/03/06 02:51:58;;;;;;;23.70;16.30;;;;;;;4.21;57.76;95223.94;5028028;28;20501;-67
2023/03/06 02:54:24;;;;;;;28.93;18.00;;;;;;;4.23;57.85;95228.16;5027877;28;20225;-69
2023/03/06 02:56:49;;;;;;;25.07;15.90;;;;;;;4.29;57.69;95226.22;5027505;28;20266;-70
2023/03/06 02:59:15;;;;;;;25.77;16.33;;;;;;;4.26;57.74;95218.56;5027587;28;20317;-70
2023/03/06 03:01:40;;;;;;;32.07;16.90;;;;;;;4.27;57.84;95220.25;5027362;28;20182;-69
2023/03/06 03:04:05;;;;;;;24.57;16.07;;;;;;;4.27;57.91;95220.25;5027464;28;20298;-70
2023/03/06 03:06:31;;;;;;;25.00;17.20;;;;;;;4.27;57.93;95217.63;5027578;28;20180;-69
2023/03/06 03:08:56;;;;;;;23.93;16.00;;;;;;;4.25;57.62;95215.09;5027990;28;20204;-69
2023/03/06 03:11:21;;;;;;;31.07;17.90;;;;;;;4.26;57.81;95211.59;5027523;28;20172;-69
2023/03/06 03:13:47;;;;;;;28.60;15.77;;;;;;;4.19;58.10;95210.16;5027495;28;20240;-68
2023/03/06 03:16:16;;;;;;;32.13;18.20;;;;;;;4.23;57.80;95219.53;5027357;28;20569;-69
2023/03/06 03:18:43;;;;;;;30.67;16.47;;;;;;;4.24;58.08;95213.41;5027600;28;20167;-69
2023/03/06 03:21:11;;;;;;;27.80;16.97;;;;;;;4.27;57.68;95207.25;5027092;28;20429;-68
2023/03/06 03:23:37;;;;;;;27.27;16.27;;;;;;;4.24;57.76;95203.03;5027061;28;20461;-68
2023/03/06 03:26:15;;;;;;;36.60;20.47;;;;;;;4.18;57.89;95203.25;5026917;28;20422;-68
2023/03/06 03:28:41;;;;;;;30.17;18.87;;;;;;;4.17;57.77;95196.38;5027352;28;20670;-69
2023/03/06 03:31:08;;;;;;;29.30;17.87;;;;;;;4.25;57.40;95202.09;5027404;28;20448;-69
2023/03/06 03:33:34;;;;;;;30.23;18.10;;;;;;;4.28;57.56;95199.41;5027038;28;20253;-69
2023/03/06 03:36:03;;;;;;;27.63;17.20;;;;;;;4.34;57.67;95203.50;5027065;28;20422;-69
2023/03/06 03:38:28;;;;;;;33.07;19.10;;;;;;;4.25;57.12;95189.13;5027196;28;20657;-69
2023/03/06 03:40:54;;;;;;;29.00;17.87;;;;;;;4.21;57.40;95191.00;5027181;28;20495;-69
2023/03/06 03:43:19;;;;;;;28.40;18.57;;;;;;;4.15;57.54;95185.19;5026994;28;20196;-69
2023/03/06 03:45:44;;;;;;;32.43;17.93;;;;;;;4.23;57.41;95181.41;5026758;28;20187;-69
2023/03/06 03:48:10;;;;;;;28.80;18.10;;;;;;;4.14;57.69;95184.34;5026760;28;20263;-68
2023/03/06 03:50:35;;;;;;;26.50;17.53;;;;;;;4.17;57.70;95183.41;5026975;28;20710;-69
2023/03/06 03:53:01;;;;;;;25.10;16.77;;;;;;;4.23;57.50;95180.56;5025457;28;20246;-68
2023/03/06 03:55:26;;;;;;;40.80;18.23;;;;;;;4.17;57.79;95181.63;5026858;28;20176;-69
2023/03/06 03:57:52;;;;;;;33.33;19.70;;;;;;;4.18;57.78;95180.75;5026496;28;20167;-69
2023/03/06 04:00:18;;;;;;;34.83;17.77;;;;;;;4.19;57.59;95185.03;5026836;28;20649;-69
2023/03/06 04:02:44;;;;;;;26.27;16.70;;;;;;;4.12;57.80;95174.94;5026823;28;20207;-68
2023/03/06 04:05:11;;;;;;;31.03;18.80;;;;;;;4.14;57.97;95173.13;5026640;28;20762;-68
2023/03/06 04:07:37;;;;;;;32.60;19.97;;;;;;;4.09;58.45;95168.13;5026338;28;20895;-69
2023/03/06 04:10:04;;;;;;;27.83;17.97;;;;;;;4.07;58.48;95171.69;5026908;28;20446;-68
2023/03/06 04:12:29;;;;;;;27.43;16.43;;;;;;;4.16;58.16;95174.75;5026883;28;20434;-67
2023/03/06 04:14:54;;;;;;;33.90;18.47;;;;;;;4.21;57.86;95172.00;5025800;28;20787;-69
2023/03/06 04:17:20;;;;;;;29.43;17.50;;;;;;;4.22;57.77;95171.91;5026280;28;20182;-70
2023/03/06 04:19:45;;;;;;;25.87;16.80;;;;;;;4.22;57.32;95155.50;5026555;28;20175;-69
2023/03/06 04:22:11;;;;;;;31.13;18.03;;;;;;;4.21;57.59;95153.81;5026513;28;20272;-70
2023/03/06 04:24:36;;;;;;;28.67;17.00;;;;;;;4.18;57.84;95149.59;5026732;28;20195;-70
2023/03/06 04:27:01;;;;;;;29.63;17.20;;;;;;;4.19;57.00;95164.25;5026954;28;20171;-69
2023/03/06 04:29:27;;;;;;;34.70;19.10;;;;;;;4.23;57.78;95152.00;5026520;28;20171;-69
2023/03/06 04:31:52;;;;;;;30.10;19.77;;;;;;;4.25;57.08;95147.56;5026288;28;20645;-69
2023/03/06 04:34:18;;;;;;;26.67;17.90;;;;;;;4.21;57.68;95143.44;5026675;28;20580;-69
2023/03/06 04:36:46;;;;;;;29.23;18.70;;;;;;;4.19;57.60;95142.63;5026134;28;20175;-67
2023/03/06 04:39:12;;;;;;;32.07;17.43;;;;;;;4.18;58.03;95151.31;5026477;28;20176;-68
2023/03/06 04:41:39;;;;;;;32.13;18.37;;;;;;;4.20;57.39;95144.31;5026171;28;20436;-68
2023/03/06 04:44:05;;;;;;;29.50;17.57;;;;;;;4.20;57.73;95139.13;5026376;28;20838;-67
2023/03/06 04:46:30;;;;;;;26.63;17.90;;;;;;;4.20;57.74;95136.53;5025959;28;20430;-67
2023/03/06 04:48:56;;;;;;;31.03;18.80;;;;;;;4.15;57.87;95138.47;5026220;28;20422;-67
2023/03/06 04:51:21;;;;;;;34.63;20.33;;;;;;;4.11;57.69;95139.47;5026188;28;20245;-67
2023/03/06 04:53:46;;;;;;;30.70;20.97;;;;;;;4.13;58.14;95138.50;5026255;28;20712;-67
2023/03/06 04:56:12;;;;;;;33.23;19.13;;;;;;;4.20;57.81;95137.38;5025885;28;20797;-68
2023/03/06 04:58:37;;;;;;;32.73;18.00;;;;;;;4.17;57.98;95136.66;5026304;28;20293;-68
2023/03/06 05:01:03;;;;;;;35.20;18.63;;;;;;;4.15;57.81;95135.88;5026036;28;20186;-67
2023/03/06 05:03:29;;;;;;;31.87;19.30;;;;;;;4.01;58.74;95144.19;5025895;28;20206;-68
2023/03/06 05:05:55;;;;;;;32.20;19.60;;;;;;;4.08;58.48;95139.59;5025739;28;20214;-68
2023/03/06 05:08:20;;;;;;;29.10;18.57;;;;;;;4.15;58.61;95133.28;5026038;28;20176;-67
2023/03/06 05:10:52;;;;;;;33.50;18.97;;;;;;;4.11;58.76;95134.28;5025880;28;20199;-68
2023/03/06 05:13:17;;;;;;;32.50;17.97;;;;;;;4.17;58.57;95129.72;5026008;28;20194;-67
2023/03/06 05:15:42;;;;;;;27.97;18.07;;;;;;;4.08;58.97;95132.66;5025862;28;20422;-67
2023/03/06 05:18:08;;;;;;;28.77;18.50;;;;;;;3.99;59.01;95131.28;5025882;28;20202;-67
2023/03/06 05:20:33;;;;;;;29.90;18.73;;;;;;;4.08;58.82;95130.06;5026042;28;20262;-67
2023/03/06 05:22:58;;;;;;;38.30;19.40;;;;;;;4.12;58.64;95133.41;5026028;28;20210;-67
2023/03/06 05:25:24;;;;;;;29.03;17.47;;;;;;;4.07;59.02;95133.56;5027256;28;20204;-69
2023/03/06 05:27:50;;;;;;;34.00;19.23;;;;;;;4.10;58.99;95127.41;5029780;28;20171;-67
2023/03/06 05:30:15;;;;;;;29.87;19.53;;;;;;;4.15;58.53;95125.47;5029626;28;20303;-67
2023/03/06 05:32:41;;;;;;;32.87;20.73;;;;;;;4.15;58.82;95128.06;5029458;28;20722;-68
2023/03/06 05:35:07;;;;;;;35.90;20.60;;;;;;;4.11;58.94;95129.97;5025593;28;20536;-68
2023/03/06 05:37:32;;;;;;;41.70;20.20;;;;;;;4.02;59.45;95128.56;5025718;28;20705;-68
2023/03/06 05:39:58;;;;;;;38.00;20.53;;;;;;;4.11;59.04;95124.78;5030510;28;20561;-68
2023/03/06 05:42:23;;;;;;;44.93;21.00;;;;;;;4.12;58.63;95123.00;5029957;28;20198;-69
2023/03/06 05:44:49;;;;;;;37.10;18.40;;;;;;;4.08;58.70;95124.03;5029775;28;20199;-68
2023/03/06 05:47:14;;;;;;;61.50;21.10;;;;;;;4.12;58.62;95134.25;5029525;28;20260;-68
2023/03/06 05:49:40;;;;;;;36.93;18.27;;;;;;;4.08;58.44;95124.88;5029249;28;20250;-68
2023/03/06 05:52:06;;;;;;;42.10;20.70;;;;;;;4.13;58.38;95129.88;5029109;28;20543;-68
2023/03/06 05:54:34;;;;;;;97.33;24.93;;;;;;;4.20;58.33;95133.94;5029262;28;20250;-67
2023/03/06 05:57:00;;;;;;;35.80;18.93;;;;;;;4.07;58.32;95132.75;5026279;28;20411;-68
2023/03/06 05:59:27;;;;;;;43.23;21.17;;;;;;;4.13;58.11;95133.31;5026066;28;20915;-69
2023/03/06 06:01:54;;;;;;;35.80;21.93;;;;;;;4.14;57.87;95135.03;5025745;28;20181;-68
2023/03/06 06:04:20;;;;;;;34.60;18.43;;;;;;;4.15;58.03;95144.50;5024131;28;20528;-67
2023/03/06 06:06:50;;;;;;;38.60;18.63;;;;;;;4.17;57.78;95128.88;5025460;28;20423;-67
2023/03/06 06:09:15;;;;;;;30.77;17.40;;;;;;;4.15;58.03;95136.72;5027028;28;20430;-69
2023/03/06 06:11:41;;;;;;;37.00;18.67;;;;;;;4.10;58.41;95135.22;5024056;28;20426;-68
2023/03/06 06:14:06;;;;;;;37.33;19.10;;;;;;;4.13;57.94;95137.69;5026185;28;20247;-68
2023/03/06 06:16:31;;;;;;;29.27;17.40;;;;;;;4.21;58.10;95130.44;5025465;28;20172;-67
2023/03/06 06:18:57;;;;;;;16.07;8.70;;;;;;;6.14;85.81;95124.75;5026073;28;20199;-70
2023/03/06 06:21:23;;;;;;;28.80;17.40;;;;;;;5.77;56.69;95129.94;5029113;28;20174;-69
2023/03/06 06:23:48;;;;;;;41.03;21.30;;;;;;;4.95;56.50;95135.25;5025557;28;20741;-69
2023/03/06 06:26:13;;;;;;;32.17;20.97;;;;;;;4.64;56.75;95129.56;5026228;28;20234;-70
2023/03/06 06:28:39;;;;;;;34.63;18.33;;;;;;;4.45;57.57;95136.41;5025823;28;20181;-70
2023/03/06 06:31:12;;;;;;;34.93;18.77;;;;;;;4.45;57.82;95132.06;5024299;28;20262;-68
2023/03/06 06:33:39;;;;;;;29.10;19.70;;;;;;;4.33;58.20;95136.91;5024063;28;20553;-68
2023/03/06 06:36:04;;;;;;;31.13;18.80;;;;;;;4.31;58.44;95130.94;5025979;28;20433;-70
2023/03/06 06:38:30;;;;;;;35.37;20.20;;;;;;;4.53;57.91;95141.28;5017290;28;20430;-69
2023/03/06 06:40:55;;;;;;;32.53;19.40;;;;;;;4.36;58.34;95135.03;5026204;28;20581;-70
2023/03/06 06:43:21;;;;;;;33.93;18.23;;;;;;;4.38;58.45;95142.75;5024699;28;20208;-69
2023/03/06 06:45:49;;;;;;;33.37;18.80;;;;;;;4.33;58.25;95137.75;5032962;28;20594;-68
2023/03/06 06:48:14;;;;;;;36.07;19.03;;;;;;;4.29;58.53;95135.34;5030294;28;20211;-69
2023/03/06 06:50:40;;;;;;;28.87;17.87;;;;;;;4.30;58.46;95142.19;5025948;28;20461;-69
2023/03/06 06:53:05;;;;;;;31.13;18.60;;;;;;;4.33;58.06;95136.91;5021798;28;20196;-69
2023/03/06 06:55:31;;;;;;;40.93;20.43;;;;;;;4.28;58.32;95137.09;5026394;28;20172;-69
2023/03/06 06:57:56;;;;;;;33.50;20.57;;;;;;;4.34;57.96;95134.22;5025818;28;20176;-70
2023/03/06 07:00:22;;;;;;;49.23;21.23;;;;;;;4.34;58.25;95144.63;5029167;28;20179;-69
2023/03/06 07:02:48;;;;;;;35.70;19.90;;;;;;;4.43;57.94;95146.00;5024840;28;20207;-70
2023/03/06 07:05:14;;;;;;;27.37;16.97;;;;;;;4.28;58.27;95141.44;5027934;28;21065;-69
2023/03/06 07:07:39;;;;;;;62.97;21.80;;;;;;;4.32;58.40;95145.59;5022966;28;20207;-69
2023/03/06 07:10:10;;;;;;;50.70;19.77;;;;;;;4.40;58.31;95138.34;5015298;28;20995;-69
2023/03/06 07:12:36;;;;;;;28.33;16.63;;;;;;;4.37;58.04;95133.25;5023109;28;20191;-68
2023/03/06 07:15:02;;;;;;;37.00;19.50;;;;;;;4.37;57.92;95141.06;5025329;28;20483;-69
2023/03/06 07:17:28;;;;;;;27.37;17.53;;;;;;;4.25;58.71;95142.38;5025037;28;20915;-70
2023/03/06 07:19:53;;;;;;;27.17;18.10;;;;;;;4.34;58.66;95144.63;5028842;28;20499;-71
2023/03/06 07:22:18;;;;;;;26.43;17.37;;;;;;;4.34;58.47;95149.81;5023886;28;20202;-70
2023/03/06 07:24:44;;;;;;;33.07;19.27;;;;;;;4.40;58.39;95143.56;5019959;28;20269;-71
2023/03/06 07:27:09;;;;;;;52.03;18.70;;;;;;;4.54;57.63;95149.03;5026760;28;20187;-69
2023/03/06 07:29:35;;;;;;;28.37;16.87;;;;;;;4.42;58.06;95152.97;5020500;28;20175;-69
2023/03/06 07:32:00;;;;;;;40.67;18.37;;;;;;;4.47;57.95;95157.16;5026742;28;20191;-69
2023/03/06 07:34:25;;;;;;;30.67;16.50;;;;;;;4.40;58.04;95157.38;5031258;28;20950;-70
2023/03/06 07:36:51;;;;;;;33.00;18.93;;;;;;;4.47;57.75;95157.97;5027357;28;20183;-70
2023/03/06 07:39:17;;;;;;;33.47;19.13;;;;;;;4.45;57.86;95157.19;5024032;28;20176;-68
2023/03/06 07:41:42;;;;;;;35.47;18.33;;;;;;;4.49;57.62;95155.31;5028556;28;20262;-71
2023/03/06 07:44:08;;;;;;;31.20;18.73;;;;;;;4.52;57.42;95161.25;5025222;28;20243;-70
2023/03/06 07:46:33;;;;;;;32.87;16.23;;;;;;;4.48;57.09;95159.66;5026182;28;20611;-69
2023/03/06 07:48:58;;;;;;;42.17;15.80;;;;;;;4.53;55.36;95167.28;5027901;28;20180;-68
2023/03/06 07:51:25;;;;;;;22.83;13.90;;;;;;;4.51;54.58;95164.72;5027558;28;20237;-70
2023/03/06 07:53:51;;;;;;;26.53;14.27;;;;;;;4.54;54.53;95172.41;5021736;28;20238;-71
2023/03/06 07:56:16;;;;;;;24.33;13.77;;;;;;;4.59;54.21;95167.88;5027839;28;20582;-70
2023/03/06 07:58:45;;;;;;;24.90;13.10;;;;;;;4.57;54.17;95172.28;5025467;28;20210;-70
2023/03/06 08:01:13;;;;;;;38.97;14.27;;;;;;;4.60;53.98;95174.75;5025538;28;20199;-71
2023/03/06 08:03:38;;;;;;;27.93;14.20;;;;;;;4.79;53.37;95174.84;5025388;28;20437;-70
2023/03/06 08:06:06;;;;;;;26.57;12.97;;;;;;;4.85;52.90;95179.81;5023183;28;20451;-68
2023/03/06 08:08:36;;;;;;;23.07;14.30;;;;;;;4.73;53.32;95185.50;5030129;28;20199;-70
2023/03/06 08:11:02;;;;;;;26.37;13.30;;;;;;;4.73;53.95;95185.50;5027026;28;20441;-70
2023/03/06 08:13:27;;;;;;;25.30;13.33;;;;;;;4.67;53.25;95191.78;5026155;28;20478;-68
2023/03/06 08:15:53;;;;;;;19.00;13.23;;;;;;;4.65;54.25;95183.22;5024293;28;20175;-69
2023/03/06 08:18:18;;;;;;;19.47;12.90;;;;;;;4.70;54.12;95188.25;5026751;28;20183;-69
2023/03/06 08:20:43;;;;;;;27.33;14.00;;;;;;;4.57;54.75;95187.03;5027526;28;20324;-70
2023/03/06 08:23:10;;;;;;;82.10;22.70;;;;;;;4.71;54.30;95192.53;5030246;28;20202;-68
2023/03/06 08:25:36;;;;;;;30.63;14.43;;;;;;;4.72;54.26;95189.00;5028291;28;20233;-67
2023/03/06 08:28:01;;;;;;;29.23;14.40;;;;;;;4.93;53.54;95199.44;5031420;28;20436;-68
2023/03/06 08:30:28;;;;;;;26.17;13.50;;;;;;;4.74;53.92;95200.19;5033631;28;20183;-68
2023/03/06 08:32:54;;;;;;;35.97;13.97;;;;;;;4.83;53.68;95194.63;5031426;28;20287;-68
2023/03/06 08:35:19;;;;;;;24.03;13.27;;;;;;;4.83;53.36;95198.97;5025917;28;20512;-69
2023/03/06 08:37:45;;;;;;;67.60;21.17;;;;;;;4.73;53.77;95203.69;5025658;28;20211;-68
2023/03/06 08:40:11;;;;;;;24.60;12.73;;;;;;;4.73;53.87;95202.88;5026736;28;20191;-68
2023/03/06 08:42:36;;;;;;;18.67;11.77;;;;;;;4.77;54.03;95200.09;5026389;28;20206;-68
2023/03/06 08:45:02;;;;;;;18.47;11.87;;;;;;;4.78;53.71;95198.31;5032509;28;20457;-70
2023/03/06 08:47:27;;;;;;;22.37;13.70;;;;;;;4.85;52.91;95197.16;5031358;28;20183;-68
2023/03/06 08:49:53;;;;;;;26.40;14.50;;;;;;;4.89;53.42;95201.34;5030572;28;20178;-69
2023/03/06 08:52:18;;;;;;;27.50;15.30;;;;;;;4.90;52.46;95191.78;5023192;28;20976;-68
2023/03/06 08:54:44;;;;;;;21.93;14.50;;;;;;;4.92;53.43;95202.97;5026627;28;20257;-68
2023/03/06 08:57:10;;;;;;;26.10;14.27;;;;;;;4.95;54.30;95200.22;5035816;28;20186;-69
2023/03/06 08:59:35;;;;;;;21.70;12.33;;;;;;;4.99;53.15;95191.41;5028026;28;20271;-68
2023/03/06 09:02:02;;;;;;;24.57;13.20;;;;;;;4.95;54.41;95200.22;5029634;28;20277;-68
2023/03/06 09:04:29;;;;;;;22.93;12.03;;;;;;;5.01;53.96;95194.78;5031255;28;20199;-68
2023/03/06 09:06:55;;;;;;;83.37;20.90;;;;;;;5.18;54.36;95197.53;5034213;28;20429;-67
2023/03/06 09:09:20;;;;;;;21.07;13.33;;;;;;;5.04;52.41;95200.69;5034781;28;20483;-67
2023/03/06 09:11:46;;;;;;;19.47;13.30;;;;;;;5.13;52.30;95196.88;5031431;28;20285;-69
2023/03/06 09:14:12;;;;;;;19.53;11.90;;;;;;;5.28;51.31;95196.22;5031943;28;20647;-69
2023/03/06 09:16:37;;;;;;;20.87;9.80;;;;;;;5.23;51.13;95205.13;5027740;28;20183;-69
2023/03/06 09:19:02;;;;;;;17.10;11.50;;;;;;;5.03;51.50;95203.34;5034558;28;20210;-69
2023/03/06 09:21:28;;;;;;;20.47;12.40;;;;;;;5.00;51.93;95206.06;5027975;28;20217;-69
2023/03/06 09:23:54;;;;;;;21.23;11.30;;;;;;;5.00;51.71;95209.50;5027562;28;20203;-69
2023/03/06 09:26:19;;;;;;;20.00;11.20;;;;;;;4.97;51.55;95208.81;5030615;28;20286;-69
2023/03/06 09:28:45;;;;;;;22.23;11.00;;;;;;;4.90;51.74;95207.38;5034929;28;20176;-70
2023/03/06 09:31:14;;;;;;;22.47;13.77;;;;;;;4.88;51.52;95213.47;5024353;28;20664;-68
2023/03/06 09:33:40;;;;;;;26.30;10.70;;;;;;;4.92;51.85;95216.81;5028827;28;20971;-67
2023/03/06 09:36:07;;;;;;;17.00;10.87;;;;;;;5.00;51.99;95213.88;5034413;28;20422;-69
2023/03/06 09:38:33;;;;;;;26.47;13.73;;;;;;;5.06;51.82;95211.88;5029571;28;20279;-68
2023/03/06 09:41:00;;;;;;;17.43;10.77;;;;;;;5.13;51.05;95215.06;5034641;28;20540;-67
2023/03/06 09:43:40;;;;;;;25.70;13.17;;;;;;;5.04;51.58;95212.84;5029041;28;20441;-70
2023/03/06 09:46:27;;;;;;;24.03;11.63;;;;;;;5.11;51.78;95211.69;5028581;28;20444;-68
2023/03/06 09:49:18;;;;;;;27.40;11.07;;;;;;;5.27;50.61;95209.31;5028132;28;20445;-68
2023/03/06 09:51:49;;;;;;;21.23;11.20;;;;;;;5.19;51.00;95209.59;5034884;28;20453;-68
2023/03/06 09:54:15;;;;;;;17.27;10.73;;;;;;;5.17;50.81;95206.22;5032667;28;20459;-68
2023/03/06 09:56:49;;;;;;;15.77;10.83;;;;;;;5.23;50.35;95202.53;5032197;28;20492;-69
2023/03/06 09:59:23;;;;;;;19.20;11.30;;;;;;;5.23;50.39;95210.34;5028532;28;20703;-68
2023/03/06 10:02:17;;;;;;;24.83;11.20;;;;;;;5.35;50.69;95198.56;5033444;28;20429;-69
2023/03/06 10:04:48;;;;;;;24.47;11.17;;;;;;;5.21;50.78;95199.16;5033175;28;20466;-69
2023/03/06 10:07:31;;;;;;;14.00;9.63;;;;;;;5.23;50.61;95195.56;5027555;28;20799;-68
2023/03/06 10:10:00;;;;;;;18.20;11.23;;;;;;;5.34;50.53;95197.72;5025172;28;20533;-69
2023/03/06 10:12:31;;;;;;;16.23;10.53;;;;;;;5.37;50.48;95196.75;5028747;28;20511;-69
2023/03/06 10:15:05;;;;;;;26.57;12.87;;;;;;;5.48;50.42;95197.97;5039762;28;20426;-69
2023/03/06 10:17:37;;;;;;;27.20;12.50;;;;;;;5.40;50.21;95199.22;5030576;28;20430;-69
2023/03/06 10:20:57;;;;;;;32.90;13.03;;;;;;;5.43;49.71;95199.94;5028415;28;20785;-67
2023/03/06 10:23:29;;;;;;;17.40;10.07;;;;;;;5.40;49.83;95201.81;5031147;28;20606;-67
2023/03/06 10:26:00;;;;;;;14.70;10.30;;;;;;;5.40;50.17;95207.84;5033406;28;20453;-69
2023/03/06 10:28:41;;;;;;;18.40;10.93;;;;;;;5.48;49.88;95197.09;5033472;28;20983;-70
2023/03/06 10:31:23;;;;;;;15.80;9.70;;;;;;;5.43;49.38;95186.06;5024397;28;20440;-68
2023/03/06 10:34:32;;;;;;;21.17;10.00;;;;;;;5.44;49.92;95190.38;5027224;28;20564;-69
2023/03/06 10:37:04;;;;;;;19.37;8.73;;;;;;;5.59;48.87;95181.88;5022994;28;20449;-68
2023/03/06 10:39:30;;;;;;;17.50;10.00;;;;;;;5.70;48.57;95192.66;5035889;28;20455;-68
2023/03/06 10:41:55;;;;;;;15.90;10.13;;;;;;;5.70;48.71;95182.25;5028103;28;20438;-69
2023/03/06 10:44:22;;;;;;;20.43;9.27;;;;;;;5.65;48.63;95189.44;5032577;28;20207;-68
2023/03/06 10:46:50;;;;;;;16.87;9.43;;;;;;;5.71;48.67;95181.34;5027037;28;20913;-68
2023/03/06 10:49:23;;;;;;;13.27;9.37;;;;;;;5.76;47.08;95182.88;5030265;28;20488;-68
2023/03/06 10:52:12;;;;;;;14.37;8.73;;;;;;;5.67;46.72;95182.41;5027142;28;20438;-69
2023/03/06 10:54:40;;;;;;;11.13;8.90;;;;;;;5.95;46.22;95183.78;5025363;28;20872;-69
2023/03/06 10:57:30;;;;;;;13.67;8.10;;;;;;;5.88;46.38;95188.41;5027510;28;20862;-69
2023/03/06 10:59:57;;;;;;;14.80;8.33;;;;;;;5.80;46.44;95181.84;5028987;28;20441;-68
2023/03/06 11:02:27;;;;;;;13.03;8.80;;;;;;;5.82;46.03;95185.22;5026873;28;20876;-70
2023/03/06 11:04:54;;;;;;;10.00;7.83;;;;;;;5.89;46.24;95173.63;5024248;28;20572;-68
2023/03/06 11:07:22;;;;;;;10.07;6.60;;;;;;;5.94;46.18;95185.53;5027884;28;20449;-69
2023/03/06 11:10:01;;;;;;;10.80;7.90;;;;;;;5.85;46.18;95179.88;5028097;28;20434;-71
2023/03/06 11:12:28;;;;;;;19.70;9.20;;;;;;;5.91;46.30;95187.44;5029437;28;20575;-70
2023/03/06 11:15:05;;;;;;;23.03;9.60;;;;;;;5.72;46.87;95180.44;5031911;28;21080;-71
2023/03/06 11:17:32;;;;;;;15.73;8.70;;;;;;;5.78;46.65;95184.50;5025137;28;20990;-70
2023/03/06 11:20:17;;;;;;;9.90;7.50;;;;;;;5.88;46.48;95178.00;5027894;28;20517;-69
2023/03/06 11:22:58;;;;;;;11.97;7.63;;;;;;;5.99;46.16;95187.09;5023599;28;20461;-69
2023/03/06 11:25:30;;;;;;;11.97;8.43;;;;;;;6.00;46.12;95175.75;5022282;28;20515;-71
2023/03/06 11:28:02;;;;;;;14.50;7.80;;;;;;;5.92;46.09;95169.13;5028886;28;20524;-69
2023/03/06 11:30:41;;;;;;;16.43;8.63;;;;;;;5.97;46.21;95175.91;5028195;28;20446;-70